Time;durP1;ratioP1;P1;durP2;ratioP2;P2;SDS_P1;SDS_P2;PMS_P1;PMS_P2;Temp;Humidity;BMP_temperature;BMP_pressure;BME280_temperature;BME280_humidity;BME280_pressure;Samples;Min_cycle;Max_cycle;Signal;HPM_P1;HPM_P2
2023/10/04 00:00:27;;;;;;;2.30;2.00;;;21.10;80.60;;;;;;4994461;28;20193;-70
2023/10/04 00:02:54;;;;;;;2.95;2.03;;;21.10;80.90;;;;;;4991624;28;20198;-70
2023/10/04 00:05:24;;;;;;;1.75;1.65;;;21.10;80.70;;;;;;4991949;28;20194;-70
2023/10/04 00:07:53;;;;;;;2.22;1.73;;;21.10;80.70;;;;;;4994434;28;20244;-70
2023/10/04 00:10:29;;;;;;;2.33;1.92;;;21.10;80.70;;;;;;4994336;28;20224;-71
2023/10/04 00:12:55;;;;;;;2.75;1.67;;;21.10;80.70;;;;;;4994470;28;20628;-71
2023/10/04 00:15:25;;;;;;;2.15;1.92;;;21.10;80.70;;;;;;4978214;28;20189;-70
2023/10/04 00:17:52;;;;;;;1.50;1.40;;;21.10;80.70;;;;;;4977995;28;20216;-70
2023/10/04 00:20:20;;;;;;;1.90;1.70;;;21.10;80.70;;;;;;5000770;28;20194;-71
2023/10/04 00:22:47;;;;;;;2.10;1.90;;;21.10;80.60;;;;;;4985178;28;20195;-71
2023/10/04 00:25:20;;;;;;;1.80;1.70;;;21.10;80.60;;;;;;4993891;28;20284;-70
2023/10/04 00:27:48;;;;;;;1.98;1.70;;;21.10;80.60;;;;;;4986892;28;20219;-70
2023/10/04 00:30:15;;;;;;;2.08;1.70;;;21.00;80.50;;;;;;4978663;28;20724;-71
2023/10/04 00:32:46;;;;;;;2.28;1.90;;;21.10;80.60;;;;;;4977715;28;20195;-71
2023/10/04 00:35:17;;;;;;;2.53;1.65;;;21.10;80.50;;;;;;4976513;28;20180;-70
2023/10/04 00:37:45;;;;;;;2.08;1.88;;;21.10;80.50;;;;;;4976967;28;20250;-71
2023/10/04 00:40:13;;;;;;;2.10;1.77;;;21.00;80.30;;;;;;4978291;28;20231;-70
2023/10/04 00:42:40;;;;;;;1.58;1.48;;;21.00;80.40;;;;;;4976574;28;20197;-70
2023/10/04 00:45:09;;;;;;;2.03;1.50;;;21.00;80.50;;;;;;4993026;28;20189;-70
2023/10/04 00:47:35;;;;;;;3.03;1.98;;;21.00;80.40;;;;;;4992639;28;20189;-70
2023/10/04 00:50:14;;;;;;;1.90;1.63;;;21.00;80.30;;;;;;4960277;28;20211;-71
2023/10/04 00:52:47;;;;;;;1.70;1.60;;;21.00;80.30;;;;;;4968930;28;20187;-71
2023/10/04 00:55:16;;;;;;;2.00;1.70;;;21.00;80.40;;;;;;4959971;28;20214;-70
2023/10/04 00:57:44;;;;;;;1.67;1.50;;;21.00;80.40;;;;;;4994123;28;20620;-70
2023/10/04 01:00:11;;;;;;;2.03;1.83;;;21.00;80.30;;;;;;4992436;28;20189;-70
2023/10/04 01:02:37;;;;;;;1.88;1.67;;;21.00;80.20;;;;;;4992619;28;20181;-71
2023/10/04 01:05:07;;;;;;;1.65;1.55;;;21.00;80.20;;;;;;4976184;28;20294;-69
2023/10/04 01:07:38;;;;;;;2.13;1.92;;;21.00;80.20;;;;;;4991783;28;20242;-70
2023/10/04 01:10:15;;;;;;;1.77;1.67;;;21.00;80.20;;;;;;4992574;28;20228;-70
2023/10/04 01:12:46;;;;;;;1.85;1.70;;;21.00;80.10;;;;;;4992575;28;20185;-70
2023/10/04 01:15:46;;;;;;;1.77;1.40;;;21.00;80.10;;;;;;4988805;28;20665;-71
2023/10/04 01:18:07;;;;;;;1.58;1.48;;;21.00;80.10;;;;;;4981217;28;20221;-70
2023/10/04 01:20:35;;;;;;;1.65;1.55;;;21.00;80.10;;;;;;4976035;28;20189;-70
2023/10/04 01:23:02;;;;;;;1.38;1.27;;;21.00;80.10;;;;;;4989840;28;20280;-70
2023/10/04 01:25:34;;;;;;;1.58;1.48;;;21.00;80.10;;;;;;4974429;28;20188;-71
2023/10/04 01:28:06;;;;;;;1.98;1.75;;;21.00;80.10;;;;;;4976096;28;20216;-70
2023/10/04 01:30:33;;;;;;;1.70;1.60;;;21.00;80.00;;;;;;4991496;28;20214;-71
2023/10/04 01:33:03;;;;;;;1.75;1.65;;;20.90;79.80;;;;;;4992138;28;20268;-71
2023/10/04 01:35:30;;;;;;;1.67;1.40;;;21.00;79.90;;;;;;4991851;28;20646;-70
2023/10/04 01:37:56;;;;;;;1.38;1.27;;;21.00;79.90;;;;;;4988445;28;20339;-70
2023/10/04 01:40:25;;;;;;;1.50;1.38;;;21.00;79.90;;;;;;4989323;28;20673;-70
2023/10/04 01:42:55;;;;;;;2.20;1.42;;;21.00;79.90;;;;;;4993081;28;20185;-70
2023/10/04 01:45:22;;;;;;;1.55;1.45;;;21.00;79.90;;;;;;4999357;28;20188;-70
2023/10/04 01:47:51;;;;;;;1.52;1.42;;;21.00;79.90;;;;;;4988244;28;20229;-70
2023/10/04 01:50:18;;;;;;;1.40;1.30;;;21.00;79.90;;;;;;4988399;28;20593;-70
2023/10/04 01:52:48;;;;;;;2.17;1.50;;;20.90;79.60;;;;;;4975653;28;20181;-69
2023/10/04 01:55:16;;;;;;;2.20;1.80;;;20.90;79.80;;;;;;4991729;28;20181;-70
2023/10/04 01:57:45;;;;;;;1.58;1.48;;;21.00;79.90;;;;;;4974948;28;20177;-70
2023/10/04 02:00:17;;;;;;;1.58;1.48;;;20.90;79.80;;;;;;4983500;28;20251;-71
2023/10/04 02:02:44;;;;;;;2.58;1.75;;;20.90;79.80;;;;;;4983798;28;20717;-70
2023/10/04 02:05:11;;;;;;;1.67;1.40;;;20.90;79.80;;;;;;4991221;28;20185;-71
2023/10/04 02:07:38;;;;;;;1.10;1.00;;;20.90;79.70;;;;;;4990725;28;20188;-71
2023/10/04 02:10:09;;;;;;;1.70;1.60;;;20.90;79.70;;;;;;4974554;28;20216;-71
2023/10/04 02:12:35;;;;;;;3.30;1.60;;;20.90;79.70;;;;;;4990837;28;20212;-70
2023/10/04 02:15:01;;;;;;;1.58;1.48;;;20.90;79.70;;;;;;4975172;28;20609;-70
2023/10/04 02:17:27;;;;;;;1.92;1.63;;;20.90;79.60;;;;;;4958610;28;20632;-70
2023/10/04 02:19:55;;;;;;;1.42;1.33;;;20.90;79.50;;;;;;4996080;28;20188;-70
2023/10/04 02:22:22;;;;;;;1.92;1.40;;;20.90;79.50;;;;;;4977337;28;20185;-70
2023/10/04 02:24:48;;;;;;;1.45;1.35;;;20.90;79.60;;;;;;4974910;28;20185;-70
2023/10/04 02:27:17;;;;;;;1.50;1.40;;;20.90;79.50;;;;;;4991008;28;20234;-70
2023/10/04 02:29:44;;;;;;;1.88;1.50;;;20.90;79.50;;;;;;4974553;28;20476;-70
2023/10/04 02:32:10;;;;;;;1.95;1.70;;;20.90;79.30;;;;;;4992131;28;20679;-70
2023/10/04 02:34:38;;;;;;;1.40;1.30;;;20.90;79.50;;;;;;4991090;28;20188;-70
2023/10/04 02:37:09;;;;;;;1.15;1.05;;;20.90;79.10;;;;;;4972807;28;20267;-70
2023/10/04 02:39:38;;;;;;;1.30;1.20;;;20.90;79.30;;;;;;4990616;28;20217;-70
2023/10/04 02:42:09;;;;;;;1.50;1.40;;;20.90;79.40;;;;;;4991127;28;20215;-71
2023/10/04 02:44:42;;;;;;;1.42;1.33;;;20.90;79.30;;;;;;4991978;28;20242;-70
2023/10/04 02:47:08;;;;;;;1.98;1.60;;;20.80;79.30;;;;;;4991917;28;20192;-71
2023/10/04 02:49:37;;;;;;;1.52;1.42;;;20.80;79.20;;;;;;4990683;28;20727;-70
2023/10/04 02:52:11;;;;;;;1.58;1.48;;;20.80;79.20;;;;;;4974559;28;20191;-70
2023/10/04 02:54:38;;;;;;;1.75;1.58;;;20.80;79.20;;;;;;4993210;28;20208;-70
2023/10/04 02:57:05;;;;;;;1.25;1.15;;;20.80;79.10;;;;;;4996180;28;20185;-71
2023/10/04 02:59:35;;;;;;;1.52;1.42;;;20.80;79.00;;;;;;4990565;28;20212;-70
2023/10/04 03:02:03;;;;;;;1.55;1.30;;;20.80;79.10;;;;;;4994503;28;20199;-70
2023/10/04 03:04:29;;;;;;;1.40;1.30;;;20.80;79.10;;;;;;4994531;28;20193;-70
2023/10/04 03:06:56;;;;;;;1.27;1.17;;;20.80;79.00;;;;;;4994268;28;20212;-70
2023/10/04 03:09:24;;;;;;;1.40;1.30;;;20.80;78.90;;;;;;4969926;28;20211;-71
2023/10/04 03:11:50;;;;;;;1.50;1.40;;;20.80;79.00;;;;;;4994743;28;20189;-70
2023/10/04 03:14:16;;;;;;;1.90;1.50;;;20.80;79.00;;;;;;4959246;28;20213;-71
2023/10/04 03:16:43;;;;;;;1.25;1.15;;;20.80;78.90;;;;;;4993387;28;20272;-71
2023/10/04 03:19:12;;;;;;;1.20;1.10;;;20.80;78.80;;;;;;4994591;28;20204;-70
2023/10/04 03:21:45;;;;;;;1.33;1.17;;;20.80;78.80;;;;;;4995488;28;20616;-71
2023/10/04 03:24:12;;;;;;;1.40;1.30;;;20.80;78.80;;;;;;4962416;28;20181;-69
2023/10/04 03:26:40;;;;;;;1.30;1.20;;;20.80;78.90;;;;;;4961761;28;20185;-70
2023/10/04 03:29:07;;;;;;;1.58;1.27;;;20.80;78.80;;;;;;4977971;28;20251;-71
2023/10/04 03:31:33;;;;;;;1.45;1.30;;;20.80;78.80;;;;;;4969634;28;20295;-70
2023/10/04 03:34:00;;;;;;;1.35;1.25;;;20.80;78.80;;;;;;4994382;28;20184;-70
2023/10/04 03:36:29;;;;;;;1.73;1.45;;;20.80;78.70;;;;;;4978412;28;20573;-71
2023/10/04 03:38:59;;;;;;;1.45;1.35;;;20.80;78.70;;;;;;4983267;28;20213;-70
2023/10/04 03:41:25;;;;;;;1.52;1.42;;;20.70;78.70;;;;;;4994034;28;20201;-70
2023/10/04 03:43:55;;;;;;;1.38;1.27;;;20.80;78.80;;;;;;4977967;28;20212;-71
2023/10/04 03:46:22;;;;;;;1.40;1.30;;;20.80;78.70;;;;;;4977774;28;20185;-70
2023/10/04 03:48:56;;;;;;;1.30;1.20;;;20.80;78.70;;;;;;4986882;28;20208;-70
2023/10/04 03:51:22;;;;;;;1.75;1.48;;;20.80;78.60;;;;;;4977379;28;20248;-70
2023/10/04 03:53:51;;;;;;;1.55;1.27;;;20.80;78.70;;;;;;4977314;28;20185;-70
2023/10/04 03:56:18;;;;;;;1.33;1.23;;;20.80;78.50;;;;;;4977625;28;20204;-70
2023/10/04 03:58:44;;;;;;;1.90;1.17;;;20.80;78.50;;;;;;4977263;28;20212;-70
2023/10/04 04:01:12;;;;;;;1.27;1.17;;;20.70;78.30;;;;;;4999769;28;20188;-71
2023/10/04 04:03:38;;;;;;;1.10;1.00;;;20.70;78.30;;;;;;4985794;28;20184;-70
2023/10/04 04:06:05;;;;;;;1.20;1.10;;;20.70;78.30;;;;;;4993397;28;20199;-70
2023/10/04 04:08:30;;;;;;;1.58;1.30;;;20.70;78.50;;;;;;4994238;28;20221;-70
2023/10/04 04:10:57;;;;;;;1.75;1.33;;;20.70;79.10;;;;;;4993164;28;20215;-70
2023/10/04 04:13:23;;;;;;;1.17;1.08;;;20.70;78.30;;;;;;4976472;28;20177;-70
2023/10/04 04:15:51;;;;;;;1.50;1.17;;;20.70;78.30;;;;;;4983220;28;20192;-70
2023/10/04 04:18:20;;;;;;;1.23;1.13;;;20.70;78.40;;;;;;4993524;28;20719;-71
2023/10/04 04:20:51;;;;;;;1.27;1.08;;;20.70;78.20;;;;;;4992980;28;20704;-70
2023/10/04 04:23:18;;;;;;;1.40;1.30;;;20.70;78.30;;;;;;4993143;28;20181;-72
2023/10/04 04:25:47;;;;;;;1.48;1.27;;;20.70;78.20;;;;;;4991873;28;20194;-71
2023/10/04 04:28:14;;;;;;;1.17;1.08;;;20.70;78.20;;;;;;4974936;28;20219;-71
2023/10/04 04:30:41;;;;;;;1.10;0.95;;;20.70;78.30;;;;;;4984558;28;20260;-72
2023/10/04 04:33:07;;;;;;;1.98;1.20;;;20.70;78.10;;;;;;4981537;28;20184;-72
2023/10/04 04:35:47;;;;;;;2.53;1.10;;;20.70;78.10;;;;;;4993084;28;20188;-73
2023/10/04 04:40:52;;;;;;;1.27;1.15;;;20.70;77.90;;;;;;4975572;28;20201;-72
2023/10/04 04:45:53;;;;;;;1.10;1.00;;;20.70;77.80;;;;;;4991779;28;20328;-72
2023/10/04 04:48:29;;;;;;;1.40;1.20;;;20.70;77.90;;;;;;4976528;28;20212;-71
2023/10/04 04:51:11;;;;;;;1.67;0.90;;;20.70;77.80;;;;;;4992742;28;20291;-70
2023/10/04 04:53:43;;;;;;;1.10;1.00;;;20.60;77.90;;;;;;4974141;28;20180;-70
2023/10/04 04:56:14;;;;;;;1.33;1.23;;;20.70;77.90;;;;;;4990662;28;20193;-69
2023/10/04 04:58:49;;;;;;;1.20;1.10;;;20.70;78.00;;;;;;4993015;28;20254;-69
2023/10/04 05:01:16;;;;;;;1.23;1.00;;;20.70;78.70;;;;;;4998704;28;20203;-69
2023/10/04 05:03:50;;;;;;;1.00;0.90;;;20.70;78.00;;;;;;4978017;28;20207;-70
2023/10/04 05:06:22;;;;;;;0.98;0.90;;;20.70;78.00;;;;;;4995969;28;20285;-70
2023/10/04 05:08:49;;;;;;;1.30;1.17;;;20.70;77.60;;;;;;4992978;28;20217;-70
2023/10/04 05:11:15;;;;;;;1.10;1.00;;;20.70;77.80;;;;;;4963706;28;20226;-70
2023/10/04 05:13:41;;;;;;;1.30;1.00;;;20.70;77.60;;;;;;4991079;28;20219;-69
2023/10/04 05:16:07;;;;;;;1.10;1.00;;;20.70;77.60;;;;;;4993190;28;20192;-70
2023/10/04 05:18:32;;;;;;;0.98;0.90;;;20.60;77.50;;;;;;4992017;28;20205;-70
2023/10/04 05:21:00;;;;;;;0.98;0.90;;;20.60;77.60;;;;;;4992191;28;20189;-70
2023/10/04 05:23:29;;;;;;;1.20;1.00;;;20.60;77.40;;;;;;4959652;28;20251;-70
2023/10/04 05:25:55;;;;;;;1.20;0.95;;;20.60;77.40;;;;;;4980688;28;20250;-69
2023/10/04 05:28:22;;;;;;;1.83;1.17;;;20.60;77.50;;;;;;4980976;28;20602;-70
2023/10/04 05:30:50;;;;;;;0.90;0.90;;;20.60;77.60;;;;;;4992865;28;20597;-70
2023/10/04 05:33:19;;;;;;;1.27;1.05;;;20.60;77.60;;;;;;4995134;28;20289;-71
2023/10/04 05:35:48;;;;;;;1.40;0.90;;;20.60;77.50;;;;;;4975687;28;20189;-68
2023/10/04 05:38:17;;;;;;;1.17;1.05;;;20.60;78.30;;;;;;4980248;28;20216;-69
2023/10/04 05:40:46;;;;;;;1.67;1.23;;;20.60;77.50;;;;;;4962081;28;20207;-70
2023/10/04 05:43:13;;;;;;;1.00;1.00;;;20.60;77.50;;;;;;4975453;28;20191;-69
2023/10/04 05:45:42;;;;;;;1.50;1.40;;;20.60;77.50;;;;;;4996606;28;20247;-69
2023/10/04 05:48:13;;;;;;;1.65;1.30;;;20.60;77.50;;;;;;4979108;28;20216;-69
2023/10/04 05:50:40;;;;;;;1.30;1.20;;;20.60;77.50;;;;;;4991739;28;20388;-69
2023/10/04 05:53:07;;;;;;;1.50;1.40;;;20.60;77.30;;;;;;4959639;28;20221;-69
2023/10/04 05:55:37;;;;;;;1.52;1.42;;;20.60;77.20;;;;;;4991447;28;20243;-69
2023/10/04 05:58:07;;;;;;;1.40;1.30;;;20.60;77.30;;;;;;4992358;28;20304;-69
2023/10/04 06:00:34;;;;;;;1.70;1.45;;;20.60;77.10;;;;;;4961914;28;20177;-69
2023/10/04 06:03:06;;;;;;;1.95;1.58;;;20.60;77.10;;;;;;4996002;28;20188;-69
2023/10/04 06:05:38;;;;;;;1.98;1.40;;;20.60;77.30;;;;;;4979640;28;20180;-69
2023/10/04 06:08:06;;;;;;;1.70;1.60;;;20.60;77.10;;;;;;4996728;28;20708;-69
2023/10/04 06:10:33;;;;;;;1.70;1.50;;;20.60;77.30;;;;;;4996017;28;20200;-69
2023/10/04 06:12:59;;;;;;;1.40;1.30;;;20.60;77.30;;;;;;4997835;28;20193;-69
2023/10/04 06:15:25;;;;;;;1.70;1.60;;;20.60;77.30;;;;;;4991516;28;20267;-69
2023/10/04 06:17:52;;;;;;;1.50;1.40;;;20.60;77.30;;;;;;4979391;28;20209;-69
2023/10/04 06:20:28;;;;;;;1.45;1.35;;;20.60;77.30;;;;;;4975228;28;20184;-69
2023/10/04 06:23:00;;;;;;;1.50;1.40;;;20.60;77.30;;;;;;4997874;28;20184;-69
2023/10/04 06:25:30;;;;;;;3.83;1.60;;;20.60;77.30;;;;;;4994922;28;20196;-68
2023/10/04 06:28:00;;;;;;;1.60;1.50;;;20.60;77.20;;;;;;4991502;28;20213;-69
2023/10/04 06:30:29;;;;;;;1.77;1.45;;;20.60;77.20;;;;;;4981408;28;20204;-69
2023/10/04 06:32:57;;;;;;;1.42;1.23;;;20.60;77.00;;;;;;4987351;28;20204;-69
2023/10/04 06:35:25;;;;;;;1.45;1.35;;;20.60;77.20;;;;;;4982354;28;20263;-69
2023/10/04 06:38:06;;;;;;;2.08;1.60;;;20.60;77.10;;;;;;4974599;28;20231;-69
2023/10/04 06:40:32;;;;;;;2.58;1.27;;;20.60;77.10;;;;;;4959872;28;20204;-69
2023/10/04 06:43:00;;;;;;;1.50;1.40;;;20.60;77.10;;;;;;4996539;28;20189;-69
2023/10/04 06:45:27;;;;;;;1.92;1.50;;;20.60;77.00;;;;;;4980992;28;20180;-69
2023/10/04 06:47:55;;;;;;;1.60;1.50;;;20.60;77.10;;;;;;4990411;28;20231;-69
2023/10/04 06:50:28;;;;;;;1.70;1.30;;;20.60;77.10;;;;;;4976426;28;20217;-68
2023/10/04 06:52:59;;;;;;;1.95;1.60;;;20.60;77.10;;;;;;4980137;28;20189;-69
2023/10/04 06:55:26;;;;;;;2.38;1.85;;;20.60;77.10;;;;;;4995170;28;20188;-69
2023/10/04 06:57:53;;;;;;;2.22;1.35;;;20.60;77.20;;;;;;4996538;28;20205;-69
2023/10/04 07:00:22;;;;;;;1.50;1.40;;;20.60;77.10;;;;;;4992493;28;20195;-69
2023/10/04 07:02:53;;;;;;;2.53;1.75;;;20.60;77.10;;;;;;4974478;28;20196;-69
2023/10/04 07:05:31;;;;;;;1.50;1.40;;;20.60;77.10;;;;;;4999309;28;20184;-69
2023/10/04 07:07:57;;;;;;;1.50;1.40;;;20.60;77.00;;;;;;4992908;28;20209;-69
2023/10/04 07:10:25;;;;;;;3.00;1.65;;;20.60;77.00;;;;;;4995954;28;20707;-69
2023/10/04 07:12:52;;;;;;;2.20;1.60;;;20.60;76.90;;;;;;4974676;28;20177;-69
2023/10/04 07:15:19;;;;;;;1.90;1.70;;;20.60;77.00;;;;;;4978471;28;20276;-69
2023/10/04 07:17:47;;;;;;;1.80;1.70;;;20.60;77.00;;;;;;4990367;28;20180;-69
2023/10/04 07:20:15;;;;;;;2.08;1.65;;;20.70;77.20;;;;;;4978334;28;20266;-69
2023/10/04 07:22:58;;;;;;;2.00;1.45;;;20.70;77.20;;;;;;4991838;28;20192;-69
2023/10/04 07:25:29;;;;;;;1.70;1.60;;;20.70;77.20;;;;;;4978261;28;20196;-69
2023/10/04 07:28:01;;;;;;;2.53;1.80;;;20.70;77.10;;;;;;4990186;28;20220;-69
2023/10/04 07:30:27;;;;;;;2.00;1.60;;;20.70;77.10;;;;;;4990499;28;20213;-69
2023/10/04 07:32:53;;;;;;;2.63;1.65;;;20.70;77.10;;;;;;4994680;28;20177;-69
2023/10/04 07:35:25;;;;;;;1.80;1.70;;;20.70;77.10;;;;;;4974226;28;20188;-69
2023/10/04 07:37:55;;;;;;;1.73;1.60;;;20.70;77.00;;;;;;4973740;28;20273;-69
2023/10/04 07:40:23;;;;;;;1.80;1.70;;;20.70;76.90;;;;;;4974218;28;20307;-69
2023/10/04 07:42:54;;;;;;;1.85;1.75;;;20.80;77.00;;;;;;4987427;28;20643;-69
2023/10/04 07:45:30;;;;;;;1.42;1.33;;;20.80;77.00;;;;;;4993212;28;20196;-69
2023/10/04 07:47:57;;;;;;;1.60;1.50;;;20.80;76.90;;;;;;4981064;28;20216;-69
2023/10/04 07:50:24;;;;;;;1.63;1.50;;;20.80;76.90;;;;;;4994853;28;20204;-69
2023/10/04 07:52:54;;;;;;;1.80;1.60;;;20.80;76.90;;;;;;4977457;28;20185;-69
2023/10/04 07:55:22;;;;;;;1.50;1.40;;;20.80;76.90;;;;;;4997811;28;20272;-69
2023/10/04 07:57:58;;;;;;;2.20;1.55;;;20.80;76.90;;;;;;4980864;28;20638;-69
2023/10/04 08:00:24;;;;;;;1.95;1.75;;;20.80;76.80;;;;;;4980962;28;20227;-69
2023/10/04 08:02:51;;;;;;;1.30;1.20;;;20.90;77.00;;;;;;4990405;28;20185;-69
2023/10/04 08:05:26;;;;;;;1.70;1.60;;;20.90;77.00;;;;;;4977298;28;20220;-69
2023/10/04 08:07:54;;;;;;;1.80;1.30;;;20.90;77.00;;;;;;4993149;28;20216;-69
2023/10/04 08:10:29;;;;;;;1.40;1.30;;;20.90;77.00;;;;;;4993293;28;20205;-69
2023/10/04 08:12:59;;;;;;;1.75;1.50;;;20.90;77.00;;;;;;4996476;28;20266;-69
2023/10/04 08:15:27;;;;;;;2.08;1.50;;;20.90;77.00;;;;;;4996607;28;20273;-69
2023/10/04 08:17:55;;;;;;;1.77;1.50;;;20.90;77.10;;;;;;4976803;28;20209;-69
2023/10/04 08:20:26;;;;;;;2.05;1.30;;;20.90;77.10;;;;;;4985080;28;20208;-69
2023/10/04 08:22:51;;;;;;;1.55;1.40;;;20.90;78.00;;;;;;4994491;28;20730;-69
2023/10/04 08:25:23;;;;;;;1.42;1.30;;;20.90;77.30;;;;;;4993202;28;20192;-69
2023/10/04 08:27:49;;;;;;;2.20;1.20;;;20.90;77.20;;;;;;4977249;28;20212;-69
2023/10/04 08:30:18;;;;;;;2.35;1.30;;;20.90;77.30;;;;;;4994069;28;20267;-69
2023/10/04 08:32:50;;;;;;;1.48;1.30;;;20.90;77.30;;;;;;4988343;28;20182;-69
2023/10/04 08:35:33;;;;;;;1.40;1.30;;;20.90;77.30;;;;;;4979260;28;20181;-69
2023/10/04 08:38:04;;;;;;;1.58;1.33;;;20.90;77.40;;;;;;4993674;28;20259;-69
2023/10/04 08:40:30;;;;;;;1.63;1.30;;;20.90;77.40;;;;;;4980939;28;20585;-69
2023/10/04 08:42:58;;;;;;;1.88;1.13;;;20.90;77.40;;;;;;4995932;28;20195;-69
2023/10/04 08:45:33;;;;;;;2.30;1.60;;;20.90;77.40;;;;;;4994046;28;20181;-69
2023/10/04 08:47:59;;;;;;;1.60;1.30;;;20.90;77.40;;;;;;4976681;28;20212;-69
2023/10/04 08:50:49;;;;;;;1.55;1.45;;;20.90;77.40;;;;;;4962690;28;20217;-69
2023/10/04 08:53:40;;;;;;;1.40;1.30;;;20.90;77.60;;;;;;4992452;28;20224;-69
2023/10/04 08:56:11;;;;;;;1.50;1.40;;;20.90;77.60;;;;;;4976073;28;20245;-69
2023/10/04 08:58:43;;;;;;;2.08;1.45;;;20.90;77.70;;;;;;4997414;28;20215;-69
2023/10/04 09:01:13;;;;;;;1.55;1.45;;;20.90;77.70;;;;;;4978084;28;20249;-69
2023/10/04 09:03:43;;;;;;;2.80;1.33;;;20.90;77.60;;;;;;4984502;28;20185;-69
2023/10/04 09:06:11;;;;;;;1.67;1.23;;;20.90;77.80;;;;;;5000442;28;20184;-69
2023/10/04 09:08:41;;;;;;;1.40;1.30;;;20.90;77.80;;;;;;4993297;28;20213;-69
2023/10/04 09:11:11;;;;;;;1.67;1.52;;;20.90;77.80;;;;;;4994641;28;20204;-69
2023/10/04 09:13:49;;;;;;;2.03;1.58;;;20.90;77.80;;;;;;4993338;28;20181;-69
2023/10/04 09:16:28;;;;;;;1.58;1.17;;;20.90;77.80;;;;;;4996243;28;20308;-69
2023/10/04 09:19:18;;;;;;;2.90;1.63;;;20.90;77.80;;;;;;4997575;28;20226;-69
2023/10/04 09:21:45;;;;;;;1.50;1.20;;;20.90;77.80;;;;;;4970944;28;20188;-69
2023/10/04 09:24:14;;;;;;;1.30;1.20;;;20.90;77.90;;;;;;4991872;28;20188;-69
2023/10/04 09:26:53;;;;;;;2.50;1.40;;;20.90;77.80;;;;;;4991876;28;20262;-69
2023/10/04 09:29:33;;;;;;;1.38;1.23;;;20.90;77.80;;;;;;4975936;28;20220;-69
2023/10/04 09:32:00;;;;;;;1.42;1.30;;;20.90;77.90;;;;;;4978047;28;20189;-69
2023/10/04 09:34:28;;;;;;;1.30;1.10;;;20.90;77.80;;;;;;4975692;28;20558;-69
2023/10/04 09:36:55;;;;;;;1.50;1.25;;;20.90;77.80;;;;;;4994299;28;20181;-69
2023/10/04 09:39:32;;;;;;;1.42;1.30;;;20.90;77.70;;;;;;4982782;28;20270;-69
2023/10/04 09:42:02;;;;;;;1.60;1.27;;;21.00;77.90;;;;;;4963083;28;20183;-69
2023/10/04 09:44:31;;;;;;;1.30;1.20;;;20.90;77.80;;;;;;4985236;28;20322;-69
2023/10/04 09:47:02;;;;;;;1.17;1.10;;;21.00;77.90;;;;;;4988240;28;20194;-69
2023/10/04 09:49:33;;;;;;;1.63;1.40;;;21.00;77.70;;;;;;4979185;28;20209;-69
2023/10/04 09:52:01;;;;;;;1.30;1.20;;;21.00;77.60;;;;;;4991989;28;20193;-69
2023/10/04 09:54:30;;;;;;;2.40;1.23;;;21.00;77.60;;;;;;4992515;28;20239;-69
2023/10/04 09:56:59;;;;;;;1.50;1.40;;;21.00;77.80;;;;;;4991460;28;20181;-69
2023/10/04 09:59:26;;;;;;;1.20;1.10;;;20.90;77.70;;;;;;4991233;28;20213;-69
2023/10/04 10:01:57;;;;;;;1.98;1.40;;;21.00;77.60;;;;;;4991594;28;20184;-69
2023/10/04 10:04:25;;;;;;;2.40;1.48;;;20.90;77.40;;;;;;4990535;28;20185;-69
2023/10/04 10:07:09;;;;;;;2.20;1.30;;;21.00;77.80;;;;;;4988223;28;20192;-69
2023/10/04 10:10:01;;;;;;;2.22;1.25;;;21.00;77.70;;;;;;4976048;28;20212;-69
2023/10/04 10:12:30;;;;;;;2.03;1.50;;;21.00;77.70;;;;;;4953448;28;20204;-69
2023/10/04 10:15:00;;;;;;;2.15;1.23;;;21.00;77.80;;;;;;4973769;28;20192;-69
2023/10/04 10:17:28;;;;;;;1.67;1.20;;;21.00;77.90;;;;;;4991138;28;20200;-69
2023/10/04 10:19:55;;;;;;;1.60;1.50;;;21.00;77.80;;;;;;4987833;28;20189;-69
2023/10/04 10:22:21;;;;;;;1.40;1.10;;;21.00;77.90;;;;;;4991842;28;20276;-69
2023/10/04 10:24:55;;;;;;;1.77;1.27;;;21.00;77.90;;;;;;4991405;28;20247;-69
2023/10/04 10:27:24;;;;;;;1.20;1.10;;;21.00;77.90;;;;;;4991366;28;20192;-69
2023/10/04 10:29:51;;;;;;;1.85;1.23;;;21.00;78.10;;;;;;4991056;28;20216;-69
2023/10/04 10:32:22;;;;;;;1.08;1.00;;;21.00;77.90;;;;;;4992296;28;20191;-69
2023/10/04 10:34:56;;;;;;;1.40;1.27;;;20.90;77.80;;;;;;4992996;28;20181;-69
2023/10/04 10:37:24;;;;;;;1.40;1.30;;;21.00;77.90;;;;;;4991686;28;20188;-69
2023/10/04 10:39:56;;;;;;;1.50;1.13;;;21.00;77.90;;;;;;4990726;28;20299;-69
2023/10/04 10:42:23;;;;;;;1.90;1.70;;;21.00;78.00;;;;;;4974779;28;20199;-69
2023/10/04 10:45:28;;;;;;;1.40;1.30;;;21.00;77.70;;;;;;4989219;28;20194;-70
2023/10/04 10:47:57;;;;;;;2.30;1.30;;;21.00;77.60;;;;;;4986310;28;20262;-69
2023/10/04 10:50:34;;;;;;;1.60;1.13;;;21.00;77.80;;;;;;4990854;28;20200;-70
2023/10/04 10:53:06;;;;;;;1.02;0.93;;;21.00;77.90;;;;;;4990395;28;20189;-70
2023/10/04 10:55:41;;;;;;;2.33;1.23;;;21.00;77.90;;;;;;4974670;28;20265;-69
2023/10/04 10:58:07;;;;;;;1.65;1.40;;;21.00;77.90;;;;;;4974467;28;20216;-70
2023/10/04 11:00:37;;;;;;;1.42;1.33;;;21.00;78.00;;;;;;4974641;28;20773;-70
2023/10/04 11:03:09;;;;;;;2.45;1.00;;;21.00;77.90;;;;;;4977267;28;20203;-70
2023/10/04 11:05:35;;;;;;;1.55;1.30;;;21.00;77.80;;;;;;4966678;28;20189;-70
2023/10/04 11:08:06;;;;;;;2.33;1.10;;;21.00;77.90;;;;;;4991011;28;20223;-70
2023/10/04 11:10:36;;;;;;;1.33;1.10;;;21.00;77.70;;;;;;4975907;28;20238;-70
2023/10/04 11:13:08;;;;;;;1.30;1.20;;;21.00;78.00;;;;;;4974879;28;20196;-70
2023/10/04 11:15:36;;;;;;;1.38;1.27;;;21.00;77.90;;;;;;4974740;28;20247;-70
2023/10/04 11:18:02;;;;;;;1.50;1.40;;;21.00;77.90;;;;;;4987876;28;20268;-70
2023/10/04 11:20:32;;;;;;;1.35;1.05;;;21.00;77.80;;;;;;4990141;28;20748;-70
2023/10/04 11:22:58;;;;;;;1.52;1.35;;;21.00;77.80;;;;;;4979153;28;20208;-70
2023/10/04 11:25:26;;;;;;;1.10;0.88;;;21.00;78.00;;;;;;4978340;28;20185;-70
2023/10/04 11:27:53;;;;;;;1.50;1.00;;;21.00;78.20;;;;;;4978037;28;20217;-69
2023/10/04 11:30:23;;;;;;;1.30;1.15;;;21.00;77.90;;;;;;4992331;28;20217;-70
2023/10/04 11:32:50;;;;;;;1.25;1.15;;;21.00;78.10;;;;;;4978161;28;20192;-70
2023/10/04 11:35:18;;;;;;;1.52;1.13;;;21.00;78.20;;;;;;4994930;28;20192;-70
2023/10/04 11:37:51;;;;;;;1.15;1.02;;;21.00;77.90;;;;;;4967926;28;20177;-70
2023/10/04 11:40:24;;;;;;;1.85;1.35;;;21.00;77.90;;;;;;4991427;28;20681;-70
2023/10/04 11:43:03;;;;;;;2.30;1.20;;;21.00;77.60;;;;;;4978789;28;20177;-70
2023/10/04 11:45:31;;;;;;;1.20;1.10;;;21.00;77.70;;;;;;4994962;28;20272;-70
2023/10/04 11:48:07;;;;;;;1.40;1.30;;;21.00;78.30;;;;;;5002552;28;20243;-70
2023/10/04 11:50:53;;;;;;;2.13;1.58;;;21.00;77.90;;;;;;4978107;28;20223;-70
2023/10/04 11:53:54;;;;;;;1.20;1.10;;;21.00;77.70;;;;;;4995306;28;20188;-70
2023/10/04 11:56:19;;;;;;;1.20;1.10;;;21.00;77.60;;;;;;4971598;28;20205;-69
2023/10/04 11:58:48;;;;;;;1.77;1.10;;;21.00;77.60;;;;;;4978097;28;20589;-70
2023/10/04 12:01:20;;;;;;;1.98;1.40;;;21.00;77.90;;;;;;4994173;28;20185;-70
2023/10/04 12:03:50;;;;;;;1.23;1.13;;;21.00;77.50;;;;;;4988442;28;20192;-70
2023/10/04 12:06:24;;;;;;;2.40;1.30;;;21.00;78.00;;;;;;4994579;28;20193;-69
2023/10/04 12:08:50;;;;;;;1.42;1.10;;;21.00;78.10;;;;;;4984159;28;20697;-70
2023/10/04 12:11:22;;;;;;;2.60;1.25;;;21.00;78.00;;;;;;4990266;28;20642;-69
2023/10/04 12:13:49;;;;;;;1.23;1.13;;;21.00;77.90;;;;;;4990284;28;20185;-69
2023/10/04 12:16:17;;;;;;;1.50;1.10;;;21.00;77.70;;;;;;4973750;28;20276;-69
2023/10/04 12:18:44;;;;;;;1.67;1.20;;;21.00;77.70;;;;;;4966359;28;20726;-69
2023/10/04 12:21:11;;;;;;;1.27;1.00;;;21.00;78.10;;;;;;4990810;28;20661;-69
2023/10/04 12:23:36;;;;;;;1.83;1.10;;;21.00;77.50;;;;;;4993481;28;20196;-69
2023/10/04 12:26:04;;;;;;;1.30;1.10;;;21.00;77.40;;;;;;4994468;28;20193;-70
2023/10/04 12:28:29;;;;;;;1.50;1.10;;;21.00;77.30;;;;;;4992671;28;20255;-69
2023/10/04 12:31:03;;;;;;;1.80;1.10;;;21.00;77.50;;;;;;4976921;28;20240;-70
2023/10/04 12:33:30;;;;;;;1.52;1.42;;;21.00;77.30;;;;;;4975824;28;20196;-70
2023/10/04 12:35:56;;;;;;;1.98;0.95;;;21.00;77.00;;;;;;4976851;28;20196;-71
2023/10/04 12:38:24;;;;;;;2.25;1.55;;;21.10;77.70;;;;;;4992939;28;20213;-70
2023/10/04 12:40:51;;;;;;;2.00;1.10;;;21.10;77.40;;;;;;4993004;28;20283;-71
2023/10/04 12:43:17;;;;;;;1.45;1.25;;;21.00;78.10;;;;;;4960615;28;20189;-71
2023/10/04 12:45:46;;;;;;;1.60;1.20;;;21.00;77.60;;;;;;4976253;28;20230;-71
2023/10/04 12:48:16;;;;;;;2.22;1.20;;;21.10;77.30;;;;;;4991945;28;20216;-71
2023/10/04 12:50:52;;;;;;;1.60;1.42;;;21.10;76.90;;;;;;4992210;28;20209;-71
2023/10/04 12:53:18;;;;;;;2.13;1.40;;;21.10;76.30;;;;;;4960150;28;20223;-73
2023/10/04 12:55:47;;;;;;;1.50;1.40;;;21.00;76.40;;;;;;4976672;28;20235;-72
2023/10/04 12:58:13;;;;;;;2.17;1.30;;;21.10;76.80;;;;;;4992506;28;20651;-72
2023/10/04 13:00:41;;;;;;;1.52;1.42;;;21.00;77.00;;;;;;5008195;28;20196;-70
2023/10/04 13:03:08;;;;;;;2.50;1.30;;;21.00;77.40;;;;;;4999138;28;20235;-72
2023/10/04 13:05:37;;;;;;;1.85;1.08;;;21.10;77.20;;;;;;4992407;28;20189;-71